Time;durP1;ratioP1;P1;durP2;ratioP2;P2;SDS_P1;SDS_P2;PMS_P1;PMS_P2;Temp;Humidity;BMP_temperature;BMP_pressure;BME280_temperature;BME280_humidity;BME280_pressure;Samples;Min_cycle;Max_cycle;Signal;HPM_P1;HPM_P2
2021/03/19 00:00:46;;;;;;;7.25;1.58;;;;;;;;;;4909017;29;20071;-61
2021/03/19 00:03:14;;;;;;;6.03;1.48;;;;;;;;;;4904625;29;20095;-61
2021/03/19 00:05:40;;;;;;;16.88;1.60;;;;;;;;;;4907731;29;20079;-61
2021/03/19 00:08:10;;;;;;;3.92;1.10;;;;;;;;;;4888995;29;20447;-61
2021/03/19 00:10:38;;;;;;;5.30;1.42;;;;;;;;;;4905920;29;20097;-61
2021/03/19 00:13:10;;;;;;;6.20;1.08;;;;;;;;;;4909828;29;20206;-62
2021/03/19 00:15:36;;;;;;;3.75;1.05;;;;;;;;;;4909569;29;20039;-61
2021/03/19 00:18:05;;;;;;;1.85;1.30;;;;;;;;;;4909560;29;20047;-62
2021/03/19 00:20:50;;;;;;;3.95;1.20;;;;;;;;;;4909556;29;20054;-61
2021/03/19 00:23:16;;;;;;;6.63;1.38;;;;;;;;;;4875119;29;20796;-60
2021/03/19 00:25:43;;;;;;;2.65;1.02;;;;;;;;;;4905405;29;20043;-61
2021/03/19 00:28:15;;;;;;;3.53;1.40;;;;;;;;;;4890687;29;20028;-62
2021/03/19 00:30:46;;;;;;;13.85;1.90;;;;;;;;;;4908516;29;20492;-62
2021/03/19 00:33:12;;;;;;;5.57;1.20;;;;;;;;;;4891912;29;20032;-61
2021/03/19 00:35:40;;;;;;;4.88;1.35;;;;;;;;;;4889175;29;20043;-61
2021/03/19 00:38:06;;;;;;;1.67;1.10;;;;;;;;;;4919799;28;20541;-61
2021/03/19 00:40:32;;;;;;;12.98;1.50;;;;;;;;;;4929087;28;20212;-62
2021/03/19 00:42:58;;;;;;;1.65;0.95;;;;;;;;;;4927979;28;21448;-62
2021/03/19 00:45:24;;;;;;;4.07;1.02;;;;;;;;;;4893177;28;20047;-62
2021/03/19 00:47:52;;;;;;;5.28;0.98;;;;;;;;;;4928850;28;20161;-62
2021/03/19 00:50:21;;;;;;;5.30;1.23;;;;;;;;;;4927980;28;20036;-62
2021/03/19 00:52:46;;;;;;;4.82;1.20;;;;;;;;;;4893341;28;20059;-62
2021/03/19 00:55:14;;;;;;;2.22;1.35;;;;;;;;;;4928463;28;20150;-61
2021/03/19 00:57:44;;;;;;;5.32;1.52;;;;;;;;;;4924138;28;20620;-63
2021/03/19 01:00:13;;;;;;;2.55;1.40;;;;;;;;;;4929140;28;20030;-62
2021/03/19 01:02:41;;;;;;;2.35;1.38;;;;;;;;;;4928308;28;20035;-62
2021/03/19 01:05:11;;;;;;;8.15;2.00;;;;;;;;;;4924017;28;20041;-62
2021/03/19 01:07:37;;;;;;;9.77;1.77;;;;;;;;;;4927164;28;20034;-62
2021/03/19 01:10:05;;;;;;;5.72;1.75;;;;;;;;;;4928675;28;20031;-62
2021/03/19 01:12:30;;;;;;;11.02;2.20;;;;;;;;;;4926941;28;20031;-62
2021/03/19 01:14:56;;;;;;;10.38;1.67;;;;;;;;;;4931097;28;20035;-61
2021/03/19 01:17:21;;;;;;;4.05;1.38;;;;;;;;;;4932327;28;20372;-61
2021/03/19 01:19:47;;;;;;;2.97;1.83;;;;;;;;;;4931850;28;20313;-61
2021/03/19 01:22:15;;;;;;;9.10;2.10;;;;;;;;;;4931626;28;20399;-61
2021/03/19 01:24:43;;;;;;;7.82;2.00;;;;;;;;;;4932443;28;20042;-62
2021/03/19 01:27:09;;;;;;;17.13;2.60;;;;;;;;;;4910099;28;20075;-61
2021/03/19 01:29:35;;;;;;;4.63;1.92;;;;;;;;;;4930878;28;20047;-62
2021/03/19 01:32:00;;;;;;;9.50;1.77;;;;;;;;;;4928066;28;20064;-62
2021/03/19 01:34:31;;;;;;;18.17;3.13;;;;;;;;;;4927379;28;22005;-61
2021/03/19 01:36:59;;;;;;;6.00;2.35;;;;;;;;;;4929106;28;21120;-60
2021/03/19 01:39:26;;;;;;;10.55;1.67;;;;;;;;;;4909886;28;20040;-61
2021/03/19 01:41:55;;;;;;;20.00;2.25;;;;;;;;;;4926765;28;20099;-61
2021/03/19 01:44:22;;;;;;;2.47;1.77;;;;;;;;;;4926392;28;20118;-62
2021/03/19 01:47:08;;;;;;;5.63;1.65;;;;;;;;;;4928337;28;20103;-61
2021/03/19 01:49:53;;;;;;;7.28;1.80;;;;;;;;;;4928395;28;20027;-62
2021/03/19 01:52:37;;;;;;;10.23;1.65;;;;;;;;;;4924408;28;20035;-60
2021/03/19 01:55:24;;;;;;;6.03;2.78;;;;;;;;;;4906932;28;20038;-62
2021/03/19 01:58:10;;;;;;;3.40;1.70;;;;;;;;;;4905936;28;20151;-61
2021/03/19 02:00:59;;;;;;;8.15;1.60;;;;;;;;;;4906841;28;20204;-61
2021/03/19 02:03:44;;;;;;;4.05;1.48;;;;;;;;;;4913880;28;20807;-61
2021/03/19 02:06:30;;;;;;;6.00;2.00;;;;;;;;;;4923457;28;20848;-62
2021/03/19 02:09:14;;;;;;;2.38;1.50;;;;;;;;;;4926881;28;20042;-62
2021/03/19 02:12:01;;;;;;;7.55;1.95;;;;;;;;;;4929141;28;20031;-61
2021/03/19 02:14:49;;;;;;;6.50;1.33;;;;;;;;;;4909587;28;20099;-62
2021/03/19 02:17:33;;;;;;;10.55;2.58;;;;;;;;;;4909949;28;20822;-64
2021/03/19 02:20:19;;;;;;;11.57;1.42;;;;;;;;;;4910646;28;20134;-61
2021/03/19 02:23:06;;;;;;;9.23;1.75;;;;;;;;;;4926387;28;20475;-62
2021/03/19 02:25:51;;;;;;;11.23;2.20;;;;;;;;;;4920105;28;20039;-61
2021/03/19 02:28:35;;;;;;;4.15;2.03;;;;;;;;;;4928244;28;20081;-62
2021/03/19 02:31:10;;;;;;;7.50;2.22;;;;;;;;;;4911454;28;20043;-61
2021/03/19 02:33:38;;;;;;;9.18;1.70;;;;;;;;;;4925693;28;20027;-62
2021/03/19 02:36:08;;;;;;;12.35;2.08;;;;;;;;;;4911610;28;20027;-61
2021/03/19 02:38:40;;;;;;;13.50;1.80;;;;;;;;;;4925737;28;20043;-61
2021/03/19 02:41:05;;;;;;;8.38;1.52;;;;;;;;;;4927576;28;20043;-60
2021/03/19 02:43:31;;;;;;;5.07;1.48;;;;;;;;;;4923498;28;20858;-62
2021/03/19 02:45:59;;;;;;;3.78;1.48;;;;;;;;;;4911273;29;20039;-61
2021/03/19 02:48:27;;;;;;;10.63;1.70;;;;;;;;;;4928762;28;20038;-61
2021/03/19 02:50:52;;;;;;;15.68;2.72;;;;;;;;;;4925855;28;20082;-61
2021/03/19 02:53:24;;;;;;;7.63;2.03;;;;;;;;;;4926761;28;20550;-62
2021/03/19 02:55:50;;;;;;;9.95;1.33;;;;;;;;;;4893801;28;20043;-61
2021/03/19 02:58:15;;;;;;;3.67;1.73;;;;;;;;;;4908962;29;20097;-61
2021/03/19 03:00:47;;;;;;;16.95;2.28;;;;;;;;;;4918630;28;20031;-61
2021/03/19 03:03:12;;;;;;;9.93;1.40;;;;;;;;;;4922956;28;20031;-61
2021/03/19 03:05:42;;;;;;;3.72;1.83;;;;;;;;;;4925351;28;20027;-61
2021/03/19 03:08:08;;;;;;;8.48;1.08;;;;;;;;;;4925784;28;20035;-61
2021/03/19 03:10:35;;;;;;;7.68;1.70;;;;;;;;;;4926574;28;20722;-61
2021/03/19 03:13:01;;;;;;;9.68;1.38;;;;;;;;;;4929446;28;20035;-61
2021/03/19 03:15:26;;;;;;;6.88;1.80;;;;;;;;;;4912832;29;20687;-62
2021/03/19 03:17:54;;;;;;;5.28;1.48;;;;;;;;;;4908735;28;21212;-63
2021/03/19 03:20:25;;;;;;;9.18;2.03;;;;;;;;;;4926461;28;20772;-61
2021/03/19 03:22:53;;;;;;;4.95;1.55;;;;;;;;;;4926252;28;20031;-61
2021/03/19 03:25:20;;;;;;;10.68;1.83;;;;;;;;;;4925648;28;20049;-60
2021/03/19 03:27:45;;;;;;;22.67;1.85;;;;;;;;;;4924612;28;20031;-62
2021/03/19 03:30:19;;;;;;;3.40;1.13;;;;;;;;;;4908775;29;20027;-61
2021/03/19 03:32:47;;;;;;;8.15;1.63;;;;;;;;;;4921841;28;20157;-62
2021/03/19 03:35:14;;;;;;;6.30;2.15;;;;;;;;;;4929380;28;20032;-60
2021/03/19 03:37:46;;;;;;;6.30;1.95;;;;;;;;;;4890188;29;20047;-59
2021/03/19 03:40:13;;;;;;;9.45;2.20;;;;;;;;;;4924145;28;20571;-62
2021/03/19 03:42:41;;;;;;;5.18;2.00;;;;;;;;;;4910600;28;20416;-60
2021/03/19 03:45:12;;;;;;;4.03;2.10;;;;;;;;;;4927384;28;20126;-61
2021/03/19 03:47:37;;;;;;;3.22;1.35;;;;;;;;;;4925294;28;20050;-61
2021/03/19 03:50:10;;;;;;;8.68;2.13;;;;;;;;;;4927914;28;20031;-61
2021/03/19 03:52:37;;;;;;;8.15;2.67;;;;;;;;;;4928440;28;20042;-60
2021/03/19 03:55:05;;;;;;;8.23;2.65;;;;;;;;;;4929203;28;20119;-60
2021/03/19 03:57:33;;;;;;;14.23;2.78;;;;;;;;;;4925814;28;20114;-59
2021/03/19 04:00:04;;;;;;;24.42;2.85;;;;;;;;;;4927872;28;20051;-60
2021/03/19 04:02:33;;;;;;;18.73;2.30;;;;;;;;;;4909970;28;20027;-61
2021/03/19 04:04:59;;;;;;;14.02;2.15;;;;;;;;;;4894857;28;20039;-61
2021/03/19 04:07:27;;;;;;;10.32;2.00;;;;;;;;;;4892717;29;22151;-59
2021/03/19 04:09:57;;;;;;;13.00;2.80;;;;;;;;;;4925620;28;20054;-60
2021/03/19 04:12:25;;;;;;;4.43;1.90;;;;;;;;;;4924090;28;20174;-59
2021/03/19 04:14:51;;;;;;;4.70;2.20;;;;;;;;;;4906957;28;20071;-59
2021/03/19 04:17:24;;;;;;;13.98;2.40;;;;;;;;;;4909067;28;20039;-60
2021/03/19 04:19:52;;;;;;;5.65;2.13;;;;;;;;;;4925073;28;20118;-60
2021/03/19 04:22:18;;;;;;;3.90;1.60;;;;;;;;;;4927126;28;20042;-59
2021/03/19 04:24:48;;;;;;;5.15;2.20;;;;;;;;;;4910775;28;20561;-59
2021/03/19 04:27:17;;;;;;;3.10;1.92;;;;;;;;;;4906789;28;20498;-61
2021/03/19 04:29:43;;;;;;;4.88;1.42;;;;;;;;;;4928827;28;20070;-60
2021/03/19 04:32:12;;;;;;;9.68;2.83;;;;;;;;;;4928141;28;20027;-60
2021/03/19 04:34:40;;;;;;;5.60;1.55;;;;;;;;;;4925857;28;20142;-60
2021/03/19 04:37:10;;;;;;;11.02;2.22;;;;;;;;;;4926775;28;20031;-59
2021/03/19 04:39:39;;;;;;;18.67;4.15;;;;;;;;;;4926254;28;20645;-60
2021/03/19 04:42:08;;;;;;;15.02;3.08;;;;;;;;;;4902609;28;20182;-59
2021/03/19 04:44:36;;;;;;;7.95;2.33;;;;;;;;;;4894113;28;20034;-59
2021/03/19 04:47:01;;;;;;;11.93;2.20;;;;;;;;;;4928735;28;20043;-58
2021/03/19 04:49:28;;;;;;;7.50;2.22;;;;;;;;;;4932185;28;20037;-60
2021/03/19 04:51:55;;;;;;;6.50;2.25;;;;;;;;;;4912467;28;20035;-59
2021/03/19 04:54:24;;;;;;;9.15;2.03;;;;;;;;;;4928083;28;20043;-58
2021/03/19 04:56:51;;;;;;;10.90;2.25;;;;;;;;;;4927386;28;20712;-59
2021/03/19 04:59:20;;;;;;;6.80;2.90;;;;;;;;;;4929132;28;20043;-59
2021/03/19 05:01:59;;;;;;;14.48;2.38;;;;;;;;;;4929020;28;20048;-58
2021/03/19 05:04:27;;;;;;;12.45;2.83;;;;;;;;;;4911770;28;20143;-59
2021/03/19 05:06:53;;;;;;;11.38;3.80;;;;;;;;;;4912366;28;20035;-58
2021/03/19 05:09:19;;;;;;;8.77;2.83;;;;;;;;;;4912060;28;20139;-58
2021/03/19 05:11:48;;;;;;;16.80;3.60;;;;;;;;;;4913082;28;20035;-58
2021/03/19 05:14:21;;;;;;;11.07;3.05;;;;;;;;;;4911358;28;20047;-57
2021/03/19 05:16:54;;;;;;;13.68;3.03;;;;;;;;;;4929241;28;20043;-58
2021/03/19 05:19:24;;;;;;;16.02;2.83;;;;;;;;;;4930959;28;20027;-58
2021/03/19 05:21:52;;;;;;;7.55;2.35;;;;;;;;;;4928599;28;20942;-58
2021/03/19 05:24:18;;;;;;;16.67;2.63;;;;;;;;;;4913310;28;20152;-59
2021/03/19 05:26:46;;;;;;;9.45;3.05;;;;;;;;;;4931927;28;20082;-57
2021/03/19 05:29:11;;;;;;;11.15;2.47;;;;;;;;;;4929187;28;20027;-59
2021/03/19 05:31:37;;;;;;;13.57;2.67;;;;;;;;;;4897211;28;20560;-57
2021/03/19 05:34:05;;;;;;;13.23;3.80;;;;;;;;;;4910893;28;20042;-59
2021/03/19 05:36:34;;;;;;;23.58;3.83;;;;;;;;;;4911295;28;20035;-58
2021/03/19 05:39:03;;;;;;;15.10;3.47;;;;;;;;;;4911077;28;20062;-58
2021/03/19 05:41:33;;;;;;;11.43;3.30;;;;;;;;;;4912876;28;20050;-58
2021/03/19 05:44:05;;;;;;;8.02;2.42;;;;;;;;;;4926734;28;20046;-58
2021/03/19 05:46:31;;;;;;;15.15;3.65;;;;;;;;;;4929031;28;20073;-58
2021/03/19 05:48:59;;;;;;;14.88;3.17;;;;;;;;;;4929818;28;20031;-57
2021/03/19 05:51:34;;;;;;;13.40;3.05;;;;;;;;;;4931131;28;20040;-57
2021/03/19 05:54:19;;;;;;;8.52;3.20;;;;;;;;;;4914013;28;20034;-57
2021/03/19 05:56:48;;;;;;;6.82;3.08;;;;;;;;;;4930110;28;20040;-58
2021/03/19 05:59:24;;;;;;;12.43;3.33;;;;;;;;;;4931861;28;20130;-58
2021/03/19 06:01:51;;;;;;;6.93;3.15;;;;;;;;;;4914810;28;20039;-59
2021/03/19 06:04:20;;;;;;;16.88;3.78;;;;;;;;;;4928181;28;20130;-58
2021/03/19 06:06:53;;;;;;;10.18;3.15;;;;;;;;;;4931567;28;20035;-57
2021/03/19 06:09:27;;;;;;;8.50;4.40;;;;;;;;;;4927506;28;20035;-59
2021/03/19 06:11:55;;;;;;;10.97;3.97;;;;;;;;;;4930453;28;21436;-58
2021/03/19 06:14:24;;;;;;;15.07;4.13;;;;;;;;;;4929456;28;20286;-58
2021/03/19 06:16:56;;;;;;;12.65;3.45;;;;;;;;;;4911260;28;20037;-58
2021/03/19 06:19:56;;;;;;;12.43;3.92;;;;;;;;;;4914914;28;20039;-58
2021/03/19 06:22:25;;;;;;;6.78;3.13;;;;;;;;;;4905372;28;20138;-57
2021/03/19 06:24:53;;;;;;;8.63;3.30;;;;;;;;;;4933358;28;20070;-58
2021/03/19 06:27:23;;;;;;;11.43;3.20;;;;;;;;;;4912260;28;20834;-56
2021/03/19 06:29:57;;;;;;;8.65;3.35;;;;;;;;;;4912777;28;20042;-58
2021/03/19 06:32:31;;;;;;;10.90;3.10;;;;;;;;;;4931826;28;20034;-57
2021/03/19 06:35:09;;;;;;;8.23;2.95;;;;;;;;;;4930439;28;20161;-56
2021/03/19 06:37:45;;;;;;;6.68;2.72;;;;;;;;;;4908718;28;20150;-57
2021/03/19 06:40:33;;;;;;;9.75;2.95;;;;;;;;;;4913077;28;20063;-58
2021/03/19 06:43:19;;;;;;;5.80;3.13;;;;;;;;;;4927086;28;20410;-58
2021/03/19 06:45:45;;;;;;;9.82;3.38;;;;;;;;;;4928283;28;20090;-58
2021/03/19 06:48:33;;;;;;;10.15;3.22;;;;;;;;;;4912421;28;20483;-58
2021/03/19 06:51:01;;;;;;;8.05;3.22;;;;;;;;;;4931738;28;20399;-59
2021/03/19 06:53:37;;;;;;;6.47;2.65;;;;;;;;;;4914694;28;20077;-58
2021/03/19 06:56:17;;;;;;;13.32;2.80;;;;;;;;;;4930768;28;20495;-58
2021/03/19 06:58:46;;;;;;;2.95;2.22;;;;;;;;;;4914084;28;21940;-58
2021/03/19 07:01:32;;;;;;;8.48;2.65;;;;;;;;;;4930560;28;20227;-59
2021/03/19 07:04:19;;;;;;;11.23;2.70;;;;;;;;;;4912696;28;20163;-59
2021/03/19 07:07:02;;;;;;;9.02;2.75;;;;;;;;;;4914673;28;20039;-59
2021/03/19 07:09:30;;;;;;;;;;;;;;;;;;4930314;28;20050;-59
2021/03/19 07:12:14;;;;;;;3.55;2.33;;;;;;;;;;4929013;28;19913;-59
2021/03/19 07:14:53;;;;;;;7.75;2.60;;;;;;;;;;4930575;28;20034;-59
2021/03/19 07:17:34;;;;;;;5.43;2.75;;;;;;;;;;4929299;28;20481;-59
2021/03/19 07:20:17;;;;;;;6.30;2.55;;;;;;;;;;4931711;28;20057;-59
2021/03/19 07:22:48;;;;;;;7.97;3.05;;;;;;;;;;4915293;28;20542;-59
2021/03/19 07:25:14;;;;;;;6.05;1.98;;;;;;;;;;4926670;28;22053;-59
2021/03/19 07:27:39;;;;;;;7.60;2.17;;;;;;;;;;4926177;28;20048;-58
2021/03/19 07:30:27;;;;;;;5.57;2.40;;;;;;;;;;4929780;28;20058;-58
2021/03/19 07:32:59;;;;;;;8.18;2.30;;;;;;;;;;4912868;28;20094;-58
2021/03/19 07:35:33;;;;;;;6.35;2.28;;;;;;;;;;4930435;28;20114;-60
2021/03/19 07:38:20;;;;;;;8.73;2.28;;;;;;;;;;4911199;28;20995;-58
2021/03/19 07:40:45;;;;;;;5.75;1.90;;;;;;;;;;4902139;29;20035;-59
2021/03/19 07:43:19;;;;;;;3.63;2.17;;;;;;;;;;4929167;28;20042;-60
2021/03/19 07:45:48;;;;;;;7.47;1.88;;;;;;;;;;4930231;28;20150;-59
2021/03/19 07:48:24;;;;;;;6.22;2.50;;;;;;;;;;4924472;28;20089;-60
2021/03/19 07:51:02;;;;;;;12.77;2.13;;;;;;;;;;4928162;28;20039;-59
2021/03/19 07:53:44;;;;;;;6.28;2.33;;;;;;;;;;4910867;28;20070;-59
2021/03/19 07:56:28;;;;;;;6.35;2.10;;;;;;;;;;4909555;28;20130;-59
2021/03/19 07:58:57;;;;;;;4.45;2.10;;;;;;;;;;4926561;28;20034;-59
2021/03/19 08:01:34;;;;;;;5.95;2.20;;;;;;;;;;4928247;28;20436;-60
2021/03/19 08:04:08;;;;;;;4.15;2.00;;;;;;;;;;4926571;28;20093;-59
2021/03/19 08:06:42;;;;;;;3.38;1.80;;;;;;;;;;4921827;28;20039;-61
2021/03/19 08:09:19;;;;;;;5.55;2.00;;;;;;;;;;4926091;28;20070;-60
2021/03/19 08:11:51;;;;;;;6.90;2.13;;;;;;;;;;4927201;28;20031;-60
2021/03/19 08:14:32;;;;;;;6.15;1.63;;;;;;;;;;4912191;28;20027;-61
2021/03/19 08:17:08;;;;;;;7.05;2.15;;;;;;;;;;4928520;28;20031;-61
2021/03/19 08:20:12;;;;;;;3.95;1.60;;;;;;;;;;4925306;28;20106;-60
2021/03/19 08:22:47;;;;;;;7.95;1.80;;;;;;;;;;4873606;29;20041;-63
2021/03/19 08:25:28;;;;;;;5.55;1.77;;;;;;;;;;4924382;28;20043;-61
2021/03/19 08:28:12;;;;;;;8.10;1.70;;;;;;;;;;4934349;28;20208;-62
2021/03/19 08:30:56;;;;;;;5.80;1.80;;;;;;;;;;4916257;28;20741;-61
2021/03/19 08:33:46;;;;;;;6.47;1.45;;;;;;;;;;4936794;28;20274;-62
2021/03/19 08:36:15;;;;;;;5.30;1.48;;;;;;;;;;4935616;28;20062;-62
2021/03/19 08:38:45;;;;;;;2.00;1.17;;;;;;;;;;4933736;28;20447;-62
2021/03/19 08:41:19;;;;;;;3.90;1.35;;;;;;;;;;4932834;28;20035;-62
2021/03/19 08:43:50;;;;;;;4.90;1.65;;;;;;;;;;4932899;28;20042;-62
2021/03/19 08:46:30;;;;;;;2.28;1.20;;;;;;;;;;4915568;28;20770;-62
2021/03/19 08:49:03;;;;;;;4.78;1.40;;;;;;;;;;4934205;28;22208;-62
2021/03/19 08:51:30;;;;;;;7.82;1.25;;;;;;;;;;4933122;28;20848;-62
2021/03/19 08:54:18;;;;;;;3.60;1.48;;;;;;;;;;4934003;28;20085;-60
2021/03/19 08:56:44;;;;;;;;;;;;;;;;;;4916605;28;20041;-62
2021/03/19 08:59:10;;;;;;;3.85;1.13;;;;;;;;;;4926368;28;19930;-64
2021/03/19 09:01:48;;;;;;;2.67;1.40;;;;;;;;;;4931012;28;20074;-63
2021/03/19 09:04:16;;;;;;;2.83;1.30;;;;;;;;;;4923728;28;20030;-63
2021/03/19 09:07:17;;;;;;;8.93;1.25;;;;;;;;;;4928338;28;20035;-63
2021/03/19 09:09:45;;;;;;;4.47;1.58;;;;;;;;;;4912918;28;20043;-63
2021/03/19 09:12:19;;;;;;;3.70;1.60;;;;;;;;;;4893158;28;21744;-63
2021/03/19 09:14:48;;;;;;;3.53;1.42;;;;;;;;;;4926849;28;20032;-62
2021/03/19 09:17:34;;;;;;;3.55;1.65;;;;;;;;;;4935763;28;20074;-62
2021/03/19 09:20:13;;;;;;;3.53;1.25;;;;;;;;;;4915333;28;20083;-63
2021/03/19 09:22:43;;;;;;;3.97;1.20;;;;;;;;;;4932290;28;20118;-64
2021/03/19 09:25:14;;;;;;;3.63;1.52;;;;;;;;;;4932130;28;20027;-63
2021/03/19 09:28:04;;;;;;;5.20;1.50;;;;;;;;;;4929859;28;20031;-63
2021/03/19 09:30:55;;;;;;;3.80;1.05;;;;;;;;;;4917857;28;20031;-62
2021/03/19 09:33:59;;;;;;;2.53;1.20;;;;;;;;;;4909349;28;20106;-63
2021/03/19 09:36:44;;;;;;;5.03;1.10;;;;;;;;;;4890987;29;20058;-64
2021/03/19 09:39:37;;;;;;;2.55;1.20;;;;;;;;;;4887852;29;20060;-64
2021/03/19 09:42:15;;;;;;;2.55;1.20;;;;;;;;;;4888724;29;20044;-64
2021/03/19 09:44:41;;;;;;;;;;;;;;;;;;4906935;29;20588;-65
2021/03/19 09:47:07;;;;;;;4.85;2.55;;;;;;;;;;4913576;28;19940;-64
2021/03/19 09:49:35;;;;;;;2.67;0.90;;;;;;;;;;4909260;28;20351;-62
2021/03/19 09:52:16;;;;;;;1.20;1.08;;;;;;;;;;4890053;28;20036;-63
2021/03/19 09:54:45;;;;;;;1.65;1.02;;;;;;;;;;4921181;28;20164;-64
2021/03/19 09:57:19;;;;;;;3.45;0.70;;;;;;;;;;4911471;28;20124;-62
2021/03/19 09:59:45;;;;;;;1.90;0.93;;;;;;;;;;4918569;28;20080;-63
2021/03/19 10:02:31;;;;;;;4.07;1.10;;;;;;;;;;4919211;28;20058;-65
2021/03/19 10:05:13;;;;;;;1.52;0.80;;;;;;;;;;4917119;28;20044;-63
2021/03/19 10:07:50;;;;;;;2.33;0.82;;;;;;;;;;4926006;28;20118;-63
2021/03/19 10:10:36;;;;;;;2.35;1.20;;;;;;;;;;4922677;28;20534;-62
2021/03/19 10:13:08;;;;;;;7.05;1.30;;;;;;;;;;4922902;28;20054;-63
2021/03/19 10:15:36;;;;;;;2.25;0.70;;;;;;;;;;4884852;28;20080;-63
2021/03/19 10:18:04;;;;;;;3.13;0.95;;;;;;;;;;4915925;28;20031;-63
2021/03/19 10:20:41;;;;;;;6.28;0.85;;;;;;;;;;4906506;28;20035;-63
2021/03/19 10:23:10;;;;;;;1.10;0.57;;;;;;;;;;4920233;28;20023;-62
2021/03/19 10:25:38;;;;;;;1.70;0.82;;;;;;;;;;4917710;28;22132;-62
2021/03/19 10:28:04;;;;;;;1.75;0.85;;;;;;;;;;4899519;28;20028;-64
2021/03/19 10:30:33;;;;;;;0.60;0.57;;;;;;;;;;4903065;29;20054;-62
2021/03/19 10:33:20;;;;;;;3.10;0.80;;;;;;;;;;4917232;28;20097;-65
2021/03/19 10:35:58;;;;;;;1.92;0.90;;;;;;;;;;4901955;28;20027;-61
2021/03/19 10:38:26;;;;;;;1.33;0.70;;;;;;;;;;4926229;28;20228;-63
2021/03/19 10:41:08;;;;;;;3.15;0.60;;;;;;;;;;4928875;28;20997;-62
2021/03/19 10:43:41;;;;;;;0.80;0.70;;;;;;;;;;4894890;28;20031;-63
2021/03/19 10:46:16;;;;;;;1.35;0.60;;;;;;;;;;4931252;28;20055;-63
2021/03/19 10:48:55;;;;;;;1.95;0.60;;;;;;;;;;4911817;28;20106;-62
2021/03/19 10:51:41;;;;;;;3.78;0.90;;;;;;;;;;4927911;28;20067;-62
2021/03/19 10:54:09;;;;;;;1.02;0.50;;;;;;;;;;4908467;28;21955;-63
2021/03/19 10:56:43;;;;;;;1.23;0.40;;;;;;;;;;4928153;28;20502;-63
2021/03/19 10:59:31;;;;;;;0.63;0.30;;;;;;;;;;4929792;28;20036;-62
2021/03/19 11:02:08;;;;;;;3.63;0.55;;;;;;;;;;4910931;28;20039;-62
2021/03/19 11:04:34;;;;;;;0.95;0.40;;;;;;;;;;4913264;28;22006;-62
2021/03/19 11:07:15;;;;;;;0.50;0.40;;;;;;;;;;4908612;28;20050;-62
2021/03/19 11:09:58;;;;;;;1.35;0.17;;;;;;;;;;4926816;28;20115;-62
2021/03/19 11:12:31;;;;;;;2.28;0.82;;;;;;;;;;4928662;28;20071;-62
2021/03/19 11:14:58;;;;;;;3.35;1.10;;;;;;;;;;4909357;28;20043;-62
2021/03/19 11:17:23;;;;;;;1.75;0.50;;;;;;;;;;4930082;28;20039;-63
2021/03/19 11:20:00;;;;;;;1.38;0.38;;;;;;;;;;4929393;28;20105;-62
2021/03/19 11:22:34;;;;;;;0.75;0.38;;;;;;;;;;4928853;28;20042;-61
2021/03/19 11:25:17;;;;;;;0.85;0.50;;;;;;;;;;4907334;28;20058;-61
2021/03/19 11:27:43;;;;;;;1.35;0.38;;;;;;;;;;4906550;28;20093;-61
2021/03/19 11:30:22;;;;;;;0.95;0.40;;;;;;;;;;4929158;28;20471;-62
2021/03/19 11:32:57;;;;;;;1.60;0.43;;;;;;;;;;4892732;28;20040;-63
2021/03/19 11:35:23;;;;;;;2.28;0.40;;;;;;;;;;4929916;28;20035;-62
2021/03/19 11:37:51;;;;;;;1.75;0.40;;;;;;;;;;4928744;28;20585;-62
2021/03/19 11:40:22;;;;;;;1.92;0.30;;;;;;;;;;4927954;28;20066;-64
2021/03/19 11:42:52;;;;;;;2.15;0.60;;;;;;;;;;4910049;28;20035;-63
2021/03/19 11:45:22;;;;;;;1.20;0.40;;;;;;;;;;4925469;28;20157;-62
2021/03/19 11:47:54;;;;;;;4.25;0.50;;;;;;;;;;4928090;28;20038;-61
2021/03/19 11:50:23;;;;;;;2.67;0.28;;;;;;;;;;4911613;29;20403;-61
2021/03/19 11:52:54;;;;;;;1.08;0.25;;;;;;;;;;4907312;28;20035;-63
2021/03/19 11:55:30;;;;;;;1.58;0.32;;;;;;;;;;4923484;28;20050;-62
2021/03/19 11:58:00;;;;;;;0.75;0.20;;;;;;;;;;4925518;28;21007;-61
2021/03/19 12:00:30;;;;;;;0.77;0.20;;;;;;;;;;4909155;28;21025;-62
2021/03/19 12:02:57;;;;;;;1.38;0.20;;;;;;;;;;4925491;28;20043;-61
2021/03/19 12:05:25;;;;;;;0.63;0.22;;;;;;;;;;4926827;28;20566;-62
2021/03/19 12:07:51;;;;;;;0.50;0.20;;;;;;;;;;4925569;28;20054;-61
2021/03/19 12:10:17;;;;;;;0.20;0.20;;;;;;;;;;4907981;28;20070;-63
2021/03/19 12:12:45;;;;;;;0.20;0.20;;;;;;;;;;4928858;28;20111;-59
2021/03/19 12:15:14;;;;;;;0.25;0.13;;;;;;;;;;4906394;28;20039;-62
2021/03/19 12:17:39;;;;;;;1.98;0.30;;;;;;;;;;4894618;28;20035;-60
2021/03/19 12:20:07;;;;;;;1.17;0.10;;;;;;;;;;4929501;28;20090;-62
2021/03/19 12:22:33;;;;;;;2.30;0.40;;;;;;;;;;4926967;28;20882;-61
2021/03/19 12:25:03;;;;;;;0.90;0.13;;;;;;;;;;4907530;28;20031;-61
2021/03/19 12:27:31;;;;;;;0.20;0.20;;;;;;;;;;4928220;28;20091;-62
2021/03/19 12:29:57;;;;;;;3.30;0.15;;;;;;;;;;4922831;28;20039;-61
2021/03/19 12:32:24;;;;;;;4.78;0.20;;;;;;;;;;4910239;28;21359;-59
2021/03/19 12:34:52;;;;;;;1.00;0.30;;;;;;;;;;4926455;28;22084;-60
2021/03/19 12:37:18;;;;;;;1.33;0.40;;;;;;;;;;4908323;28;20078;-62
2021/03/19 12:39:43;;;;;;;0.00;0.00;;;;;;;;;;4909186;28;20391;-61
2021/03/19 12:42:13;;;;;;;0.63;0.20;;;;;;;;;;4907295;28;20118;-61
2021/03/19 12:44:39;;;;;;;0.20;0.10;;;;;;;;;;4925796;28;20059;-61
2021/03/19 12:47:06;;;;;;;0.82;0.13;;;;;;;;;;4924928;28;20149;-58
2021/03/19 12:49:35;;;;;;;0.28;0.10;;;;;;;;;;4913027;28;20039;-60
2021/03/19 12:52:01;;;;;;;2.90;0.10;;;;;;;;;;4924294;28;20035;-60
2021/03/19 12:54:31;;;;;;;0.00;0.00;;;;;;;;;;4927001;28;20034;-59
2021/03/19 12:57:02;;;;;;;2.08;0.10;;;;;;;;;;4926147;28;20121;-60
2021/03/19 12:59:27;;;;;;;1.88;0.20;;;;;;;;;;4927694;28;20458;-63
2021/03/19 13:01:57;;;;;;;0.65;0.20;;;;;;;;;;4909524;28;20035;-60
2021/03/19 13:04:27;;;;;;;0.00;0.00;;;;;;;;;;4930526;28;20024;-61
2021/03/19 13:06:52;;;;;;;1.17;0.10;;;;;;;;;;4930178;28;20042;-60
2021/03/19 13:09:18;;;;;;;0.25;0.10;;;;;;;;;;4914243;28;20043;-60
2021/03/19 13:11:44;;;;;;;0.52;0.10;;;;;;;;;;4912624;28;20070;-60
2021/03/19 13:14:09;;;;;;;1.10;0.10;;;;;;;;;;4911828;28;20627;-61
2021/03/19 13:16:35;;;;;;;0.57;0.10;;;;;;;;;;4897388;28;20039;-60
2021/03/19 13:19:06;;;;;;;0.95;0.15;;;;;;;;;;4914767;28;20035;-60
2021/03/19 13:21:35;;;;;;;0.40;0.20;;;;;;;;;;4932550;28;20047;-60
2021/03/19 13:24:03;;;;;;;0.68;0.15;;;;;;;;;;4913146;28;20118;-61
2021/03/19 13:26:29;;;;;;;1.63;0.15;;;;;;;;;;4929907;28;20039;-60
2021/03/19 13:28:54;;;;;;;0.00;0.00;;;;;;;;;;4929873;28;20094;-60
2021/03/19 13:31:21;;;;;;;2.17;0.13;;;;;;;;;;4915053;28;20070;-61
2021/03/19 13:33:46;;;;;;;2.05;0.20;;;;;;;;;;4934770;28;20111;-61
2021/03/19 13:36:12;;;;;;;2.70;0.32;;;;;;;;;;4914657;28;20043;-61
2021/03/19 13:38:40;;;;;;;1.48;0.20;;;;;;;;;;4910553;28;20039;-61
2021/03/19 13:41:07;;;;;;;2.42;0.43;;;;;;;;;;4913334;28;20558;-62
2021/03/19 13:43:39;;;;;;;0.47;0.20;;;;;;;;;;4897673;28;20038;-61
2021/03/19 13:46:10;;;;;;;1.20;0.30;;;;;;;;;;4928358;28;20043;-62
2021/03/19 13:48:36;;;;;;;4.65;0.20;;;;;;;;;;4912186;29;20085;-62
2021/03/19 13:51:06;;;;;;;4.32;0.52;;;;;;;;;;4926557;28;20499;-62
2021/03/19 13:53:33;;;;;;;1.13;0.45;;;;;;;;;;4914204;28;20043;-60
2021/03/19 13:56:02;;;;;;;0.65;0.30;;;;;;;;;;4912954;28;20042;-60
2021/03/19 13:58:33;;;;;;;4.57;0.73;;;;;;;;;;4911984;29;20031;-59
2021/03/19 14:01:02;;;;;;;5.43;0.60;;;;;;;;;;4930176;28;20149;-60
2021/03/19 14:03:33;;;;;;;2.88;0.47;;;;;;;;;;4931324;28;20027;-60
2021/03/19 14:06:01;;;;;;;2.60;0.50;;;;;;;;;;4929331;28;20039;-62
2021/03/19 14:08:29;;;;;;;2.85;0.70;;;;;;;;;;4914990;28;20093;-61
2021/03/19 14:10:56;;;;;;;5.78;0.80;;;;;;;;;;4926276;28;20039;-59
2021/03/19 14:13:25;;;;;;;1.92;0.60;;;;;;;;;;4929607;28;20027;-61
2021/03/19 14:15:52;;;;;;;4.38;0.95;;;;;;;;;;4927518;28;20042;-59
2021/03/19 14:18:22;;;;;;;3.15;0.55;;;;;;;;;;4908672;28;20142;-59
2021/03/19 14:20:51;;;;;;;1.67;0.50;;;;;;;;;;4928808;28;20039;-60
2021/03/19 14:23:18;;;;;;;3.83;1.05;;;;;;;;;;4926239;28;20045;-60
2021/03/19 14:25:44;;;;;;;2.30;0.63;;;;;;;;;;4909847;28;20057;-60
2021/03/19 14:28:14;;;;;;;0.70;0.50;;;;;;;;;;4927149;28;20488;-59
2021/03/19 14:30:42;;;;;;;2.53;0.68;;;;;;;;;;4928154;28;20027;-61
2021/03/19 14:33:07;;;;;;;1.80;0.80;;;;;;;;;;4893597;28;20062;-60
2021/03/19 14:35:36;;;;;;;3.42;0.55;;;;;;;;;;4927867;28;20031;-61
2021/03/19 14:38:01;;;;;;;2.88;0.50;;;;;;;;;;4929358;28;20138;-62
2021/03/19 14:40:32;;;;;;;2.25;0.68;;;;;;;;;;4927998;28;20372;-61
2021/03/19 14:42:58;;;;;;;2.63;0.60;;;;;;;;;;4913261;28;20051;-58
2021/03/19 14:45:26;;;;;;;4.25;1.02;;;;;;;;;;4922647;28;20111;-61
2021/03/19 14:47:52;;;;;;;5.18;1.00;;;;;;;;;;4927164;28;20039;-62
2021/03/19 14:50:21;;;;;;;4.13;0.80;;;;;;;;;;4925064;28;20036;-62
2021/03/19 14:52:49;;;;;;;4.50;1.00;;;;;;;;;;4923933;28;20035;-61
2021/03/19 14:55:20;;;;;;;1.77;0.82;;;;;;;;;;4924977;28;20145;-62
2021/03/19 14:57:46;;;;;;;2.40;0.60;;;;;;;;;;4923256;28;20039;-61
2021/03/19 15:00:14;;;;;;;3.78;0.95;;;;;;;;;;4908730;28;20046;-61
2021/03/19 15:02:42;;;;;;;5.43;0.82;;;;;;;;;;4926151;28;22084;-62
2021/03/19 15:05:08;;;;;;;3.95;1.05;;;;;;;;;;4910892;28;20027;-61
2021/03/19 15:07:34;;;;;;;3.65;1.13;;;;;;;;;;4909381;28;20050;-61